Maersk Esmeraldas — HPDM — position and weather

sailwx.info

Track history (hours):
 
Tides and Currents Weather Stations Pressure Air Temp Water Temp Dewpoint Dewpoint Depression Visibility Wind Speed Wind Dir Waves Ship Positions

Maersk Esmeraldas

Last reported at 2017-Dec-04 10:09 UTC. Time now 2017-Dec-17 10:10 UTC.
Position N 01°20' E 103°33'.
Warning: this ship's position is 13 days out of date.

Length 366 m; draft 15.3 m.

Type: Ship (hazmat cat A). MMSI: 357104000.

Date/timePositionNaut miles runAvg speedWind from/ knotsBaromVisibWave heightAir tempDewpointWater temp
2017-Dec-04 10:09N 01°20' E 103°33'0 0.0
2017-Dec-04 09:54N 01°20' E 103°33'0 0.1
2017-Dec-04 09:15N 01°20' E 103°33'0 0.0
2017-Dec-04 08:45N 01°20' E 103°33'0 0.0
2017-Dec-04 08:30N 01°20' E 103°33'0 0.1
2017-Dec-04 07:33N 01°20' E 103°33'0 0.6
2017-Dec-04 07:27N 01°20' E 103°33'0 0.0
2017-Dec-04 06:45N 01°20' E 103°33'0 0.0
2017-Dec-04 05:57N 01°20' E 103°33'0 0.0
2017-Dec-04 05:27N 01°20' E 103°33'0 0.0
2017-Dec-04 04:57N 01°20' E 103°33'0 0.0
2017-Dec-04 04:30N 01°20' E 103°33'0 0.0
2017-Dec-04 04:00N 01°20' E 103°33'0 0.0
2017-Dec-04 02:36N 01°20' E 103°33'0 0.0
2017-Dec-04 02:12N 01°20' E 103°33'0 0.0
2017-Dec-04 01:54N 01°20' E 103°33'0 0.0
2017-Dec-04 01:18N 01°20' E 103°33'0 0.0
2017-Dec-04 00:54N 01°20' E 103°33'0 0.0
2017-Dec-03 23:40N 01°20' E 103°33'0 0.4
2017-Dec-03 23:30N 01°20' E 103°33'0 0.7
2017-Dec-03 23:00N 01°20' E 103°33'3 5.6
2017-Dec-03 22:30N 01°17' E 103°33'4 7.9
2017-Dec-03 22:00N 01°13' E 103°32'1 1.3
2017-Dec-03 21:30N 01°13' E 103°33'3 5.0
2017-Dec-03 20:59N 01°12' E 103°35'3 6.6
2017-Dec-03 20:30N 01°12' E 103°38'3 6.2
2017-Dec-03 19:58N 01°10' E 103°41'3 6.5
2017-Dec-03 19:28N 01°09' E 103°44'4 7.6
2017-Dec-03 18:59N 01°10' E 103°47'4 8.8
2017-Dec-03 18:30N 01°12' E 103°51'4 8.3
2017-Dec-03 18:01N 01°14' E 103°55'4 7.8
2017-Dec-03 17:30N 01°15' E 103°59'4 8.2
2017-Dec-03 17:00N 01°16' E 104°03'  
2017-Nov-27 12:27N 30°35' E 122°08'4 0.3
2017-Nov-26 22:29N 30°38' E 122°03'0 0.0
2017-Nov-26 16:38N 30°38' E 122°03'0 0.0
2017-Nov-26 16:08N 30°38' E 122°03'0 0.0
2017-Nov-26 15:51N 30°38' E 122°03'0 0.6
2017-Nov-26 15:29N 30°37' E 122°03'0 0.8
2017-Nov-26 15:00N 30°37' E 122°03'4 8.1
2017-Nov-26 14:30N 30°35' E 122°07'  
Track history (hours):
 
Tides and Currents Weather Stations Pressure Air Temp Water Temp Dewpoint Dewpoint Depression Visibility Wind Speed Wind Dir Waves Ship Positions

Maersk Esmeraldas

Last reported at 2017-Dec-04 10:09 UTC. Time now 2017-Dec-17 10:10 UTC.
Position N 01°20' E 103°33'.
Warning: this ship's position is 13 days out of date.

Length 366 m; draft 15.3 m.

Type: Ship (hazmat cat A). MMSI: 357104000.

Date/timePositionNaut miles runAvg speedWind from/ knotsBaromVisibWave heightAir tempDewpointWater temp
2017-Dec-04 10:09N 01°20' E 103°33'0 0.0
2017-Dec-04 09:54N 01°20' E 103°33'0 0.1
2017-Dec-04 09:15N 01°20' E 103°33'0 0.0
2017-Dec-04 08:45N 01°20' E 103°33'0 0.0
2017-Dec-04 08:30N 01°20' E 103°33'0 0.1
2017-Dec-04 07:33N 01°20' E 103°33'0 0.6
2017-Dec-04 07:27N 01°20' E 103°33'0 0.0
2017-Dec-04 06:45N 01°20' E 103°33'0 0.0
2017-Dec-04 05:57N 01°20' E 103°33'0 0.0
2017-Dec-04 05:27N 01°20' E 103°33'0 0.0
2017-Dec-04 04:57N 01°20' E 103°33'0 0.0
2017-Dec-04 04:30N 01°20' E 103°33'0 0.0
2017-Dec-04 04:00N 01°20' E 103°33'0 0.0
2017-Dec-04 02:36N 01°20' E 103°33'0 0.0
2017-Dec-04 02:12N 01°20' E 103°33'0 0.0
2017-Dec-04 01:54N 01°20' E 103°33'0 0.0
2017-Dec-04 01:18N 01°20' E 103°33'0 0.0
2017-Dec-04 00:54N 01°20' E 103°33'0 0.0
2017-Dec-03 23:40N 01°20' E 103°33'0 0.4
2017-Dec-03 23:30N 01°20' E 103°33'0 0.7
2017-Dec-03 23:00N 01°20' E 103°33'3 5.6
2017-Dec-03 22:30N 01°17' E 103°33'4 7.9
2017-Dec-03 22:00N 01°13' E 103°32'1 1.3
2017-Dec-03 21:30N 01°13' E 103°33'3 5.0
2017-Dec-03 20:59N 01°12' E 103°35'3 6.6
2017-Dec-03 20:30N 01°12' E 103°38'3 6.2
2017-Dec-03 19:58N 01°10' E 103°41'3 6.5
2017-Dec-03 19:28N 01°09' E 103°44'4 7.6
2017-Dec-03 18:59N 01°10' E 103°47'4 8.8
2017-Dec-03 18:30N 01°12' E 103°51'4 8.3
2017-Dec-03 18:01N 01°14' E 103°55'4 7.8
2017-Dec-03 17:30N 01°15' E 103°59'4 8.2
2017-Dec-03 17:00N 01°16' E 104°03'  
2017-Nov-27 12:27N 30°35' E 122°08'4 0.3
2017-Nov-26 22:29N 30°38' E 122°03'0 0.0
2017-Nov-26 16:38N 30°38' E 122°03'0 0.0
2017-Nov-26 16:08N 30°38' E 122°03'0 0.0
2017-Nov-26 15:51N 30°38' E 122°03'0 0.6
2017-Nov-26 15:29N 30°37' E 122°03'0 0.8
2017-Nov-26 15:00N 30°37' E 122°03'4 8.1
2017-Nov-26 14:30N 30°35' E 122°07'  

Dump ship's entire track history